KLDM/LDM METAR and TAF weather

Enter ICAO airport designator
Station Type Date Time Source
KLDM METAR 2020/03/29 13:55 UTC NOAA

KLDM 291355Z AUTO 22014G29KT 10SM BKN039 OVC055 09/06 A2938 RMK AO2 T00850058


Station Type Date Time Source
KLDM Decoded METAR 2020/03/29 13:55 UTC NOAA

Ludington, Mason County Airport, MI, United States (KLDM) 43-58N 86-24W
Mar 29, 2020 - 09:55 AM EDT / 2020.03.29 1355 UTC
Wind: from the SW (220 degrees) at 16 MPH (14 KT) gusting to 33 MPH (29 KT):0
Visibility: 10 mile(s):0
Sky conditions: overcast
Temperature: 47.3 F (8.5 C)
Dew Point: 42.4 F (5.8 C)
Relative Humidity: 83%
Pressure (altimeter): 29.38 in. Hg (994 hPa)
ob: KLDM 291355Z AUTO 22014G29KT 10SM BKN039 OVC055 09/06 A2938 RMK AO2 T00850058
cycle: 14

Station Type Date Time Source
KLDM TAF UTC NOAA

Error!

Example: see airport list